sensor_id;sensor_type;location;lat;lon;timestamp;P1;durP1;ratioP1;P2;durP2;ratioP2
72611;SDS011;60655;52.182;4.474;2023-03-01T00:03:19;11.35;;;5.55;;
72611;SDS011;60655;52.182;4.474;2023-03-01T00:05:20;14.02;;;6.18;;
72611;SDS011;60655;52.182;4.474;2023-03-01T00:07:21;12.98;;;6.00;;
72611;SDS011;60655;52.182;4.474;2023-03-01T00:09:22;16.55;;;7.00;;
72611;SDS011;60655;52.182;4.474;2023-03-01T00:11:25;14.65;;;7.22;;
72611;SDS011;60655;52.182;4.474;2023-03-01T00:13:28;14.60;;;7.05;;
72611;SDS011;60655;52.182;4.474;2023-03-01T00:15:29;16.83;;;7.00;;
72611;SDS011;60655;52.182;4.474;2023-03-01T00:17:30;14.05;;;6.78;;
72611;SDS011;60655;52.182;4.474;2023-03-01T00:19:30;16.10;;;7.40;;
72611;SDS011;60655;52.182;4.474;2023-03-01T00:21:33;14.52;;;6.57;;
72611;SDS011;60655;52.182;4.474;2023-03-01T00:23:36;14.65;;;6.93;;
72611;SDS011;60655;52.182;4.474;2023-03-01T00:25:41;13.35;;;6.45;;
72611;SDS011;60655;52.182;4.474;2023-03-01T00:27:42;14.95;;;6.60;;
72611;SDS011;60655;52.182;4.474;2023-03-01T00:29:43;14.18;;;6.55;;
72611;SDS011;60655;52.182;4.474;2023-03-01T00:31:44;15.00;;;6.97;;
72611;SDS011;60655;52.182;4.474;2023-03-01T00:33:45;14.07;;;6.32;;
72611;SDS011;60655;52.182;4.474;2023-03-01T00:35:46;17.35;;;6.82;;
72611;SDS011;60655;52.182;4.474;2023-03-01T00:37:47;14.90;;;6.18;;
72611;SDS011;60655;52.182;4.474;2023-03-01T00:39:48;17.40;;;6.93;;
72611;SDS011;60655;52.182;4.474;2023-03-01T00:41:49;15.75;;;7.20;;
72611;SDS011;60655;52.182;4.474;2023-03-01T00:43:50;15.98;;;6.97;;
72611;SDS011;60655;52.182;4.474;2023-03-01T00:45:51;14.68;;;6.32;;
72611;SDS011;60655;52.182;4.474;2023-03-01T00:47:52;16.23;;;7.20;;
72611;SDS011;60655;52.182;4.474;2023-03-01T00:49:54;14.68;;;6.88;;
72611;SDS011;60655;52.182;4.474;2023-03-01T00:51:55;17.77;;;7.15;;
72611;SDS011;60655;52.182;4.474;2023-03-01T00:53:57;14.85;;;6.97;;
72611;SDS011;60655;52.182;4.474;2023-03-01T00:55:59;17.45;;;7.53;;
72611;SDS011;60655;52.182;4.474;2023-03-01T00:58:01;15.43;;;6.47;;
72611;SDS011;60655;52.182;4.474;2023-03-01T01:00:02;15.18;;;6.80;;
72611;SDS011;60655;52.182;4.474;2023-03-01T01:02:06;18.15;;;7.43;;
72611;SDS011;60655;52.182;4.474;2023-03-01T01:04:08;16.90;;;6.95;;
72611;SDS011;60655;52.182;4.474;2023-03-01T01:06:30;14.95;;;6.53;;
72611;SDS011;60655;52.182;4.474;2023-03-01T01:08:33;13.68;;;6.50;;
72611;SDS011;60655;52.182;4.474;2023-03-01T01:10:34;14.18;;;6.80;;
72611;SDS011;60655;52.182;4.474;2023-03-01T01:12:35;14.63;;;6.05;;
72611;SDS011;60655;52.182;4.474;2023-03-01T01:14:37;13.48;;;6.72;;
72611;SDS011;60655;52.182;4.474;2023-03-01T01:16:39;15.98;;;7.10;;
72611;SDS011;60655;52.182;4.474;2023-03-01T01:18:39;15.30;;;7.18;;
72611;SDS011;60655;52.182;4.474;2023-03-01T01:20:41;13.55;;;6.57;;
72611;SDS011;60655;52.182;4.474;2023-03-01T01:22:41;17.38;;;7.68;;
72611;SDS011;60655;52.182;4.474;2023-03-01T01:24:42;15.45;;;7.18;;
72611;SDS011;60655;52.182;4.474;2023-03-01T01:26:43;17.42;;;7.15;;
72611;SDS011;60655;52.182;4.474;2023-03-01T01:28:45;15.93;;;7.45;;
72611;SDS011;60655;52.182;4.474;2023-03-01T01:30:47;17.67;;;7.72;;
72611;SDS011;60655;52.182;4.474;2023-03-01T01:32:47;16.00;;;6.95;;
72611;SDS011;60655;52.182;4.474;2023-03-01T01:34:48;13.98;;;6.75;;
72611;SDS011;60655;52.182;4.474;2023-03-01T01:36:50;17.05;;;7.28;;
72611;SDS011;60655;52.182;4.474;2023-03-01T01:38:56;17.63;;;7.18;;
72611;SDS011;60655;52.182;4.474;2023-03-01T01:40:57;15.02;;;6.88;;
72611;SDS011;60655;52.182;4.474;2023-03-01T01:42:58;16.45;;;6.88;;
72611;SDS011;60655;52.182;4.474;2023-03-01T01:47:27;15.52;;;7.03;;
72611;SDS011;60655;52.182;4.474;2023-03-01T01:49:31;15.82;;;7.20;;
72611;SDS011;60655;52.182;4.474;2023-03-01T01:51:37;14.65;;;6.25;;
72611;SDS011;60655;52.182;4.474;2023-03-01T01:53:42;16.38;;;6.75;;
72611;SDS011;60655;52.182;4.474;2023-03-01T01:55:50;17.50;;;7.90;;
72611;SDS011;60655;52.182;4.474;2023-03-01T01:58:00;15.70;;;7.05;;
72611;SDS011;60655;52.182;4.474;2023-03-01T02:00:06;16.27;;;7.43;;
72611;SDS011;60655;52.182;4.474;2023-03-01T02:02:15;17.98;;;7.32;;
72611;SDS011;60655;52.182;4.474;2023-03-01T02:04:17;16.00;;;7.47;;
72611;SDS011;60655;52.182;4.474;2023-03-01T02:08:30;14.50;;;5.68;;
72611;SDS011;60655;52.182;4.474;2023-03-01T02:10:33;15.75;;;6.72;;
72611;SDS011;60655;52.182;4.474;2023-03-01T02:12:35;17.52;;;7.18;;
72611;SDS011;60655;52.182;4.474;2023-03-01T02:14:38;17.67;;;7.20;;
72611;SDS011;60655;52.182;4.474;2023-03-01T02:16:39;18.80;;;7.13;;
72611;SDS011;60655;52.182;4.474;2023-03-01T02:18:41;18.08;;;7.07;;
72611;SDS011;60655;52.182;4.474;2023-03-01T02:23:13;19.40;;;6.45;;
72611;SDS011;60655;52.182;4.474;2023-03-01T02:30:16;15.95;;;6.75;;
72611;SDS011;60655;52.182;4.474;2023-03-01T02:32:19;21.13;;;7.05;;
72611;SDS011;60655;52.182;4.474;2023-03-01T02:34:25;14.10;;;6.03;;
72611;SDS011;60655;52.182;4.474;2023-03-01T02:36:29;15.13;;;6.63;;
72611;SDS011;60655;52.182;4.474;2023-03-01T02:38:34;15.30;;;6.90;;
72611;SDS011;60655;52.182;4.474;2023-03-01T02:42:57;13.05;;;6.07;;
72611;SDS011;60655;52.182;4.474;2023-03-01T02:44:59;14.95;;;6.55;;
72611;SDS011;60655;52.182;4.474;2023-03-01T02:47:00;17.73;;;7.10;;
72611;SDS011;60655;52.182;4.474;2023-03-01T02:49:16;15.68;;;6.72;;
72611;SDS011;60655;52.182;4.474;2023-03-01T02:53:56;17.20;;;7.60;;
72611;SDS011;60655;52.182;4.474;2023-03-01T02:56:03;17.33;;;7.55;;
72611;SDS011;60655;52.182;4.474;2023-03-01T02:58:04;16.35;;;7.90;;
72611;SDS011;60655;52.182;4.474;2023-03-01T03:00:09;18.17;;;7.85;;
72611;SDS011;60655;52.182;4.474;2023-03-01T03:04:38;16.90;;;7.05;;
72611;SDS011;60655;52.182;4.474;2023-03-01T03:06:39;14.35;;;6.85;;
72611;SDS011;60655;52.182;4.474;2023-03-01T03:08:40;20.40;;;8.07;;
72611;SDS011;60655;52.182;4.474;2023-03-01T03:10:41;19.02;;;7.80;;
72611;SDS011;60655;52.182;4.474;2023-03-01T03:12:49;17.63;;;7.45;;
72611;SDS011;60655;52.182;4.474;2023-03-01T03:14:52;15.80;;;7.03;;
72611;SDS011;60655;52.182;4.474;2023-03-01T03:16:53;17.58;;;7.43;;
72611;SDS011;60655;52.182;4.474;2023-03-01T03:18:54;16.05;;;7.00;;
72611;SDS011;60655;52.182;4.474;2023-03-01T03:20:55;20.75;;;8.05;;
72611;SDS011;60655;52.182;4.474;2023-03-01T03:22:56;17.42;;;7.47;;
72611;SDS011;60655;52.182;4.474;2023-03-01T03:25:01;18.10;;;8.00;;
72611;SDS011;60655;52.182;4.474;2023-03-01T03:27:02;19.65;;;8.32;;
72611;SDS011;60655;52.182;4.474;2023-03-01T03:29:03;19.13;;;8.07;;
72611;SDS011;60655;52.182;4.474;2023-03-01T03:31:05;18.45;;;7.82;;
72611;SDS011;60655;52.182;4.474;2023-03-01T03:33:07;17.20;;;7.20;;
72611;SDS011;60655;52.182;4.474;2023-03-01T03:35:10;19.27;;;8.10;;
72611;SDS011;60655;52.182;4.474;2023-03-01T03:37:11;17.90;;;7.85;;
72611;SDS011;60655;52.182;4.474;2023-03-01T03:39:32;16.35;;;7.40;;
72611;SDS011;60655;52.182;4.474;2023-03-01T03:41:35;17.58;;;7.85;;
72611;SDS011;60655;52.182;4.474;2023-03-01T03:43:37;17.67;;;7.88;;
72611;SDS011;60655;52.182;4.474;2023-03-01T03:45:39;19.80;;;8.43;;
72611;SDS011;60655;52.182;4.474;2023-03-01T03:49:41;16.73;;;6.47;;
72611;SDS011;60655;52.182;4.474;2023-03-01T03:53:45;14.80;;;6.20;;
72611;SDS011;60655;52.182;4.474;2023-03-01T03:55:46;16.60;;;6.38;;
72611;SDS011;60655;52.182;4.474;2023-03-01T03:57:49;17.60;;;8.18;;
72611;SDS011;60655;52.182;4.474;2023-03-01T03:59:54;16.90;;;7.32;;
72611;SDS011;60655;52.182;4.474;2023-03-01T04:01:55;19.83;;;8.15;;
72611;SDS011;60655;52.182;4.474;2023-03-01T04:03:56;20.27;;;8.60;;
72611;SDS011;60655;52.182;4.474;2023-03-01T04:06:03;17.85;;;7.30;;
72611;SDS011;60655;52.182;4.474;2023-03-01T04:08:05;17.20;;;7.25;;
72611;SDS011;60655;52.182;4.474;2023-03-01T04:10:10;17.05;;;7.60;;
72611;SDS011;60655;52.182;4.474;2023-03-01T04:12:15;20.63;;;8.30;;
72611;SDS011;60655;52.182;4.474;2023-03-01T04:14:21;18.30;;;7.10;;
72611;SDS011;60655;52.182;4.474;2023-03-01T04:16:22;20.83;;;8.63;;
72611;SDS011;60655;52.182;4.474;2023-03-01T04:18:23;21.05;;;8.73;;
72611;SDS011;60655;52.182;4.474;2023-03-01T04:20:26;19.13;;;8.02;;
72611;SDS011;60655;52.182;4.474;2023-03-01T04:22:29;21.58;;;9.38;;
72611;SDS011;60655;52.182;4.474;2023-03-01T04:24:33;20.48;;;8.18;;
72611;SDS011;60655;52.182;4.474;2023-03-01T04:26:34;21.05;;;8.20;;
72611;SDS011;60655;52.182;4.474;2023-03-01T04:28:36;19.20;;;8.05;;
72611;SDS011;60655;52.182;4.474;2023-03-01T04:30:40;22.75;;;7.82;;
72611;SDS011;60655;52.182;4.474;2023-03-01T04:32:41;22.13;;;8.05;;
72611;SDS011;60655;52.182;4.474;2023-03-01T04:36:44;16.95;;;6.82;;
72611;SDS011;60655;52.182;4.474;2023-03-01T04:38:45;19.58;;;7.75;;
72611;SDS011;60655;52.182;4.474;2023-03-01T04:40:49;23.45;;;9.07;;
72611;SDS011;60655;52.182;4.474;2023-03-01T04:42:50;17.88;;;8.15;;
72611;SDS011;60655;52.182;4.474;2023-03-01T04:44:51;20.38;;;8.35;;
72611;SDS011;60655;52.182;4.474;2023-03-01T04:46:52;22.75;;;9.25;;
72611;SDS011;60655;52.182;4.474;2023-03-01T04:48:53;20.50;;;8.02;;
72611;SDS011;60655;52.182;4.474;2023-03-01T04:50:54;18.20;;;8.38;;
72611;SDS011;60655;52.182;4.474;2023-03-01T04:52:55;20.27;;;8.30;;
72611;SDS011;60655;52.182;4.474;2023-03-01T04:54:58;16.58;;;7.93;;
72611;SDS011;60655;52.182;4.474;2023-03-01T04:57:00;18.25;;;8.00;;
72611;SDS011;60655;52.182;4.474;2023-03-01T04:59:02;18.20;;;8.35;;
72611;SDS011;60655;52.182;4.474;2023-03-01T05:01:16;20.67;;;8.70;;
72611;SDS011;60655;52.182;4.474;2023-03-01T05:03:20;23.77;;;9.50;;
72611;SDS011;60655;52.182;4.474;2023-03-01T05:07:25;18.52;;;8.38;;
72611;SDS011;60655;52.182;4.474;2023-03-01T05:11:27;27.15;;;9.68;;
72611;SDS011;60655;52.182;4.474;2023-03-01T05:13:37;27.45;;;10.45;;
72611;SDS011;60655;52.182;4.474;2023-03-01T05:15:39;44.53;;;10.88;;
72611;SDS011;60655;52.182;4.474;2023-03-01T05:17:40;41.25;;;10.85;;
72611;SDS011;60655;52.182;4.474;2023-03-01T05:19:41;54.30;;;12.80;;
72611;SDS011;60655;52.182;4.474;2023-03-01T05:21:43;41.78;;;12.73;;
72611;SDS011;60655;52.182;4.474;2023-03-01T05:24:10;48.60;;;10.93;;
72611;SDS011;60655;52.182;4.474;2023-03-01T05:26:12;125.93;;;14.48;;
72611;SDS011;60655;52.182;4.474;2023-03-01T05:28:13;134.80;;;14.02;;
72611;SDS011;60655;52.182;4.474;2023-03-01T05:30:14;54.65;;;13.85;;
72611;SDS011;60655;52.182;4.474;2023-03-01T05:32:16;94.68;;;13.50;;
72611;SDS011;60655;52.182;4.474;2023-03-01T05:34:17;72.20;;;11.77;;
72611;SDS011;60655;52.182;4.474;2023-03-01T05:36:17;98.90;;;13.80;;
72611;SDS011;60655;52.182;4.474;2023-03-01T05:38:19;60.78;;;11.75;;
72611;SDS011;60655;52.182;4.474;2023-03-01T05:40:22;71.05;;;11.35;;
72611;SDS011;60655;52.182;4.474;2023-03-01T05:42:24;37.53;;;11.93;;
72611;SDS011;60655;52.182;4.474;2023-03-01T05:44:26;37.10;;;10.57;;
72611;SDS011;60655;52.182;4.474;2023-03-01T05:46:28;29.98;;;10.32;;
72611;SDS011;60655;52.182;4.474;2023-03-01T05:48:29;89.68;;;11.20;;
72611;SDS011;60655;52.182;4.474;2023-03-01T05:50:34;32.67;;;10.18;;
72611;SDS011;60655;52.182;4.474;2023-03-01T05:52:37;35.22;;;10.90;;
72611;SDS011;60655;52.182;4.474;2023-03-01T05:54:38;20.88;;;9.32;;
72611;SDS011;60655;52.182;4.474;2023-03-01T05:56:39;28.27;;;10.52;;
72611;SDS011;60655;52.182;4.474;2023-03-01T05:58:40;22.20;;;8.73;;
72611;SDS011;60655;52.182;4.474;2023-03-01T06:00:41;22.25;;;9.65;;
72611;SDS011;60655;52.182;4.474;2023-03-01T06:02:44;22.92;;;9.75;;
72611;SDS011;60655;52.182;4.474;2023-03-01T06:04:45;24.20;;;10.68;;
72611;SDS011;60655;52.182;4.474;2023-03-01T06:06:46;23.33;;;10.40;;
72611;SDS011;60655;52.182;4.474;2023-03-01T06:08:47;25.17;;;10.73;;
72611;SDS011;60655;52.182;4.474;2023-03-01T06:10:48;24.70;;;11.05;;
72611;SDS011;60655;52.182;4.474;2023-03-01T06:12:49;23.33;;;9.25;;
72611;SDS011;60655;52.182;4.474;2023-03-01T06:14:49;22.20;;;8.80;;
72611;SDS011;60655;52.182;4.474;2023-03-01T06:16:50;24.33;;;9.32;;
72611;SDS011;60655;52.182;4.474;2023-03-01T06:18:51;20.02;;;9.35;;
72611;SDS011;60655;52.182;4.474;2023-03-01T06:20:53;24.27;;;10.15;;
72611;SDS011;60655;52.182;4.474;2023-03-01T06:22:54;21.42;;;9.35;;
72611;SDS011;60655;52.182;4.474;2023-03-01T06:26:56;21.85;;;9.63;;
72611;SDS011;60655;52.182;4.474;2023-03-01T06:28:57;22.10;;;8.43;;
72611;SDS011;60655;52.182;4.474;2023-03-01T06:30:58;23.02;;;9.23;;
72611;SDS011;60655;52.182;4.474;2023-03-01T06:32:59;24.60;;;10.25;;
72611;SDS011;60655;52.182;4.474;2023-03-01T06:35:04;20.65;;;9.25;;
72611;SDS011;60655;52.182;4.474;2023-03-01T06:37:06;21.35;;;9.35;;
72611;SDS011;60655;52.182;4.474;2023-03-01T06:39:07;23.92;;;10.65;;
72611;SDS011;60655;52.182;4.474;2023-03-01T06:41:08;21.13;;;9.13;;
72611;SDS011;60655;52.182;4.474;2023-03-01T06:43:09;21.02;;;9.40;;
72611;SDS011;60655;52.182;4.474;2023-03-01T06:45:10;27.23;;;9.95;;
72611;SDS011;60655;52.182;4.474;2023-03-01T06:47:11;25.45;;;10.32;;
72611;SDS011;60655;52.182;4.474;2023-03-01T06:49:13;23.52;;;9.77;;
72611;SDS011;60655;52.182;4.474;2023-03-01T06:51:13;25.73;;;10.63;;
72611;SDS011;60655;52.182;4.474;2023-03-01T06:53:14;21.52;;;9.20;;
72611;SDS011;60655;52.182;4.474;2023-03-01T06:55:15;29.85;;;12.70;;
72611;SDS011;60655;52.182;4.474;2023-03-01T06:57:17;25.55;;;11.35;;
72611;SDS011;60655;52.182;4.474;2023-03-01T06:59:18;23.83;;;10.80;;
72611;SDS011;60655;52.182;4.474;2023-03-01T07:01:19;23.55;;;9.32;;
72611;SDS011;60655;52.182;4.474;2023-03-01T07:03:20;24.30;;;9.15;;
72611;SDS011;60655;52.182;4.474;2023-03-01T07:05:21;20.30;;;8.60;;
72611;SDS011;60655;52.182;4.474;2023-03-01T07:07:22;23.55;;;9.73;;
72611;SDS011;60655;52.182;4.474;2023-03-01T07:09:23;21.67;;;9.68;;
72611;SDS011;60655;52.182;4.474;2023-03-01T07:11:24;22.27;;;9.40;;
72611;SDS011;60655;52.182;4.474;2023-03-01T07:13:25;35.75;;;15.35;;
72611;SDS011;60655;52.182;4.474;2023-03-01T07:15:26;42.33;;;17.13;;
72611;SDS011;60655;52.182;4.474;2023-03-01T07:17:28;31.02;;;12.75;;
72611;SDS011;60655;52.182;4.474;2023-03-01T07:19:29;26.98;;;11.02;;
72611;SDS011;60655;52.182;4.474;2023-03-01T07:21:30;21.40;;;10.25;;
72611;SDS011;60655;52.182;4.474;2023-03-01T07:23:31;27.48;;;10.80;;
72611;SDS011;60655;52.182;4.474;2023-03-01T07:25:32;23.77;;;9.77;;
72611;SDS011;60655;52.182;4.474;2023-03-01T07:29:34;24.92;;;9.15;;
72611;SDS011;60655;52.182;4.474;2023-03-01T07:31:37;21.25;;;8.75;;
72611;SDS011;60655;52.182;4.474;2023-03-01T07:33:37;21.55;;;9.05;;
72611;SDS011;60655;52.182;4.474;2023-03-01T07:35:38;20.88;;;8.88;;
72611;SDS011;60655;52.182;4.474;2023-03-01T07:37:39;26.42;;;10.45;;
72611;SDS011;60655;52.182;4.474;2023-03-01T07:39:40;23.42;;;9.65;;
72611;SDS011;60655;52.182;4.474;2023-03-01T07:41:41;24.02;;;10.27;;
72611;SDS011;60655;52.182;4.474;2023-03-01T07:43:43;22.42;;;9.50;;
72611;SDS011;60655;52.182;4.474;2023-03-01T07:45:43;25.85;;;9.73;;
72611;SDS011;60655;52.182;4.474;2023-03-01T07:47:44;27.77;;;10.82;;
72611;SDS011;60655;52.182;4.474;2023-03-01T07:49:46;22.67;;;10.10;;
72611;SDS011;60655;52.182;4.474;2023-03-01T07:51:47;25.95;;;10.38;;
72611;SDS011;60655;52.182;4.474;2023-03-01T07:53:48;22.58;;;10.00;;
72611;SDS011;60655;52.182;4.474;2023-03-01T07:55:49;28.67;;;10.90;;
72611;SDS011;60655;52.182;4.474;2023-03-01T07:57:50;24.15;;;11.68;;
72611;SDS011;60655;52.182;4.474;2023-03-01T07:59:51;25.50;;;11.68;;
72611;SDS011;60655;52.182;4.474;2023-03-01T08:01:52;26.98;;;11.93;;
72611;SDS011;60655;52.182;4.474;2023-03-01T08:03:53;27.08;;;12.25;;
72611;SDS011;60655;52.182;4.474;2023-03-01T08:05:54;27.35;;;11.75;;
72611;SDS011;60655;52.182;4.474;2023-03-01T08:07:55;22.73;;;11.00;;
72611;SDS011;60655;52.182;4.474;2023-03-01T08:09:55;27.25;;;11.35;;
72611;SDS011;60655;52.182;4.474;2023-03-01T08:11:57;26.02;;;12.43;;
72611;SDS011;60655;52.182;4.474;2023-03-01T08:14:00;28.20;;;12.30;;
72611;SDS011;60655;52.182;4.474;2023-03-01T08:16:01;26.48;;;11.18;;
72611;SDS011;60655;52.182;4.474;2023-03-01T08:18:07;30.70;;;13.20;;
72611;SDS011;60655;52.182;4.474;2023-03-01T08:20:08;35.40;;;14.07;;
72611;SDS011;60655;52.182;4.474;2023-03-01T08:22:12;29.95;;;13.68;;
72611;SDS011;60655;52.182;4.474;2023-03-01T08:24:13;39.72;;;18.38;;
72611;SDS011;60655;52.182;4.474;2023-03-01T08:26:16;43.80;;;18.20;;
72611;SDS011;60655;52.182;4.474;2023-03-01T08:28:19;42.40;;;19.10;;
72611;SDS011;60655;52.182;4.474;2023-03-01T08:30:19;45.85;;;18.27;;
72611;SDS011;60655;52.182;4.474;2023-03-01T08:32:21;47.35;;;19.85;;
72611;SDS011;60655;52.182;4.474;2023-03-01T08:34:22;42.03;;;19.55;;
72611;SDS011;60655;52.182;4.474;2023-03-01T08:36:23;56.35;;;21.98;;
72611;SDS011;60655;52.182;4.474;2023-03-01T08:38:26;48.30;;;21.85;;
72611;SDS011;60655;52.182;4.474;2023-03-01T08:40:27;46.08;;;20.55;;
72611;SDS011;60655;52.182;4.474;2023-03-01T08:42:28;45.85;;;19.73;;
72611;SDS011;60655;52.182;4.474;2023-03-01T08:44:28;44.97;;;20.20;;
72611;SDS011;60655;52.182;4.474;2023-03-01T08:46:36;47.55;;;20.02;;
72611;SDS011;60655;52.182;4.474;2023-03-01T08:48:39;44.72;;;17.88;;
72611;SDS011;60655;52.182;4.474;2023-03-01T08:50:43;43.25;;;17.13;;
72611;SDS011;60655;52.182;4.474;2023-03-01T08:52:44;38.95;;;16.35;;
72611;SDS011;60655;52.182;4.474;2023-03-01T08:54:46;36.47;;;15.43;;
72611;SDS011;60655;52.182;4.474;2023-03-01T08:56:48;41.53;;;17.95;;
72611;SDS011;60655;52.182;4.474;2023-03-01T09:00:50;32.30;;;12.98;;
72611;SDS011;60655;52.182;4.474;2023-03-01T09:02:51;34.95;;;14.35;;
72611;SDS011;60655;52.182;4.474;2023-03-01T09:04:52;36.55;;;15.65;;
72611;SDS011;60655;52.182;4.474;2023-03-01T09:06:53;34.38;;;14.95;;
72611;SDS011;60655;52.182;4.474;2023-03-01T09:08:54;38.17;;;15.75;;
72611;SDS011;60655;52.182;4.474;2023-03-01T09:10:55;34.17;;;14.40;;
72611;SDS011;60655;52.182;4.474;2023-03-01T09:12:56;35.65;;;15.35;;
72611;SDS011;60655;52.182;4.474;2023-03-01T09:14:57;35.25;;;15.77;;
72611;SDS011;60655;52.182;4.474;2023-03-01T09:16:58;37.08;;;15.85;;
72611;SDS011;60655;52.182;4.474;2023-03-01T09:19:03;33.40;;;16.42;;
72611;SDS011;60655;52.182;4.474;2023-03-01T09:21:09;35.35;;;14.10;;
72611;SDS011;60655;52.182;4.474;2023-03-01T09:23:11;32.22;;;14.65;;
72611;SDS011;60655;52.182;4.474;2023-03-01T09:25:12;39.85;;;17.33;;
72611;SDS011;60655;52.182;4.474;2023-03-01T09:27:13;31.27;;;14.70;;
72611;SDS011;60655;52.182;4.474;2023-03-01T09:29:15;35.80;;;14.85;;
72611;SDS011;60655;52.182;4.474;2023-03-01T09:31:17;30.35;;;14.52;;
72611;SDS011;60655;52.182;4.474;2023-03-01T09:33:20;28.35;;;12.95;;
72611;SDS011;60655;52.182;4.474;2023-03-01T09:35:21;31.17;;;13.13;;
72611;SDS011;60655;52.182;4.474;2023-03-01T09:37:23;34.47;;;13.13;;
72611;SDS011;60655;52.182;4.474;2023-03-01T09:39:24;36.28;;;15.75;;
72611;SDS011;60655;52.182;4.474;2023-03-01T09:43:47;39.63;;;15.32;;
72611;SDS011;60655;52.182;4.474;2023-03-01T09:45:54;38.28;;;14.13;;
72611;SDS011;60655;52.182;4.474;2023-03-01T09:48:00;30.05;;;13.43;;
72611;SDS011;60655;52.182;4.474;2023-03-01T09:52:25;26.30;;;11.63;;
72611;SDS011;60655;52.182;4.474;2023-03-01T09:54:34;35.85;;;14.27;;
72611;SDS011;60655;52.182;4.474;2023-03-01T09:56:50;30.75;;;13.55;;
72611;SDS011;60655;52.182;4.474;2023-03-01T09:59:13;35.75;;;13.65;;
72611;SDS011;60655;52.182;4.474;2023-03-01T10:03:34;29.92;;;13.43;;
72611;SDS011;60655;52.182;4.474;2023-03-01T10:08:03;26.92;;;12.10;;
72611;SDS011;60655;52.182;4.474;2023-03-01T10:12:27;28.42;;;12.65;;
72611;SDS011;60655;52.182;4.474;2023-03-01T10:17:19;34.20;;;13.80;;
72611;SDS011;60655;52.182;4.474;2023-03-01T10:19:49;30.02;;;12.20;;
72611;SDS011;60655;52.182;4.474;2023-03-01T10:21:50;30.25;;;12.52;;
72611;SDS011;60655;52.182;4.474;2023-03-01T10:23:52;30.33;;;12.60;;
72611;SDS011;60655;52.182;4.474;2023-03-01T10:26:12;30.92;;;14.02;;
72611;SDS011;60655;52.182;4.474;2023-03-01T10:28:26;31.48;;;13.32;;
72611;SDS011;60655;52.182;4.474;2023-03-01T10:30:40;33.55;;;13.73;;
72611;SDS011;60655;52.182;4.474;2023-03-01T10:32:44;29.58;;;12.40;;
72611;SDS011;60655;52.182;4.474;2023-03-01T10:34:45;30.35;;;12.50;;
72611;SDS011;60655;52.182;4.474;2023-03-01T10:36:50;35.10;;;15.27;;
72611;SDS011;60655;52.182;4.474;2023-03-01T10:38:57;29.38;;;12.73;;
72611;SDS011;60655;52.182;4.474;2023-03-01T10:40:59;21.92;;;10.65;;
72611;SDS011;60655;52.182;4.474;2023-03-01T10:43:06;25.48;;;11.63;;
72611;SDS011;60655;52.182;4.474;2023-03-01T10:47:32;29.23;;;11.95;;
72611;SDS011;60655;52.182;4.474;2023-03-01T10:49:34;30.13;;;12.43;;
72611;SDS011;60655;52.182;4.474;2023-03-01T10:51:35;28.02;;;12.30;;
72611;SDS011;60655;52.182;4.474;2023-03-01T10:53:41;27.65;;;13.55;;
72611;SDS011;60655;52.182;4.474;2023-03-01T10:55:42;23.10;;;9.60;;
72611;SDS011;60655;52.182;4.474;2023-03-01T10:57:44;22.98;;;10.85;;
72611;SDS011;60655;52.182;4.474;2023-03-01T10:59:45;25.77;;;12.20;;
72611;SDS011;60655;52.182;4.474;2023-03-01T11:01:47;22.20;;;10.93;;
72611;SDS011;60655;52.182;4.474;2023-03-01T11:04:13;28.05;;;12.68;;
72611;SDS011;60655;52.182;4.474;2023-03-01T11:06:21;21.70;;;9.90;;
72611;SDS011;60655;52.182;4.474;2023-03-01T11:08:56;21.67;;;9.05;;
72611;SDS011;60655;52.182;4.474;2023-03-01T11:10:50;22.92;;;10.02;;
72611;SDS011;60655;52.182;4.474;2023-03-01T11:12:52;20.60;;;9.05;;
72611;SDS011;60655;52.182;4.474;2023-03-01T11:14:54;21.90;;;9.65;;
72611;SDS011;60655;52.182;4.474;2023-03-01T11:17:38;22.55;;;9.98;;
72611;SDS011;60655;52.182;4.474;2023-03-01T11:19:30;23.23;;;11.65;;
72611;SDS011;60655;52.182;4.474;2023-03-01T11:21:32;18.75;;;8.68;;
72611;SDS011;60655;52.182;4.474;2023-03-01T11:23:35;16.75;;;7.93;;
72611;SDS011;60655;52.182;4.474;2023-03-01T11:25:43;23.80;;;10.65;;
72611;SDS011;60655;52.182;4.474;2023-03-01T11:27:50;23.38;;;10.82;;
72611;SDS011;60655;52.182;4.474;2023-03-01T11:30:13;18.13;;;7.95;;
72611;SDS011;60655;52.182;4.474;2023-03-01T11:32:20;21.23;;;9.00;;
72611;SDS011;60655;52.182;4.474;2023-03-01T11:36:52;18.10;;;8.73;;
72611;SDS011;60655;52.182;4.474;2023-03-01T11:41:06;19.85;;;8.35;;
72611;SDS011;60655;52.182;4.474;2023-03-01T11:43:28;20.35;;;9.02;;
72611;SDS011;60655;52.182;4.474;2023-03-01T11:55:12;15.25;;;7.22;;
72611;SDS011;60655;52.182;4.474;2023-03-01T12:26:25;13.18;;;5.70;;
72611;SDS011;60655;52.182;4.474;2023-03-01T12:36:06;14.77;;;7.03;;
72611;SDS011;60655;52.182;4.474;2023-03-01T12:39:07;14.02;;;6.55;;
72611;SDS011;60655;52.182;4.474;2023-03-01T12:41:16;13.57;;;6.70;;
72611;SDS011;60655;52.182;4.474;2023-03-01T12:50:01;14.18;;;7.13;;
72611;SDS011;60655;52.182;4.474;2023-03-01T12:54:36;15.18;;;6.07;;
72611;SDS011;60655;52.182;4.474;2023-03-01T12:56:37;15.80;;;7.80;;
72611;SDS011;60655;52.182;4.474;2023-03-01T12:58:41;17.08;;;7.47;;
72611;SDS011;60655;52.182;4.474;2023-03-01T13:03:28;16.38;;;7.10;;
72611;SDS011;60655;52.182;4.474;2023-03-01T13:05:46;12.95;;;6.55;;
72611;SDS011;60655;52.182;4.474;2023-03-01T13:11:53;14.18;;;6.03;;
72611;SDS011;60655;52.182;4.474;2023-03-01T13:18:32;15.57;;;6.03;;
72611;SDS011;60655;52.182;4.474;2023-03-01T13:22:44;14.88;;;5.80;;
72611;SDS011;60655;52.182;4.474;2023-03-01T13:24:47;14.48;;;6.50;;
72611;SDS011;60655;52.182;4.474;2023-03-01T13:29:11;15.43;;;5.25;;
72611;SDS011;60655;52.182;4.474;2023-03-01T13:37:42;12.50;;;5.70;;
72611;SDS011;60655;52.182;4.474;2023-03-01T13:39:44;16.05;;;6.25;;
72611;SDS011;60655;52.182;4.474;2023-03-01T13:43:51;13.27;;;5.80;;
72611;SDS011;60655;52.182;4.474;2023-03-01T13:47:53;13.68;;;5.68;;
72611;SDS011;60655;52.182;4.474;2023-03-01T13:49:59;15.40;;;5.03;;
72611;SDS011;60655;52.182;4.474;2023-03-01T13:52:02;12.52;;;5.35;;
72611;SDS011;60655;52.182;4.474;2023-03-01T13:54:03;11.13;;;5.05;;
72611;SDS011;60655;52.182;4.474;2023-03-01T13:56:09;14.55;;;6.13;;
72611;SDS011;60655;52.182;4.474;2023-03-01T13:58:26;13.93;;;5.97;;
72611;SDS011;60655;52.182;4.474;2023-03-01T14:00:36;13.80;;;5.95;;
72611;SDS011;60655;52.182;4.474;2023-03-01T14:02:39;12.73;;;6.30;;
72611;SDS011;60655;52.182;4.474;2023-03-01T14:04:41;13.98;;;5.68;;
72611;SDS011;60655;52.182;4.474;2023-03-01T14:06:43;12.85;;;5.65;;
72611;SDS011;60655;52.182;4.474;2023-03-01T14:10:52;11.27;;;5.38;;
72611;SDS011;60655;52.182;4.474;2023-03-01T14:15:32;11.45;;;5.03;;
72611;SDS011;60655;52.182;4.474;2023-03-01T14:19:54;13.68;;;5.10;;
72611;SDS011;60655;52.182;4.474;2023-03-01T14:24:04;10.18;;;4.57;;
72611;SDS011;60655;52.182;4.474;2023-03-01T14:26:07;15.15;;;5.28;;
72611;SDS011;60655;52.182;4.474;2023-03-01T14:28:25;13.50;;;5.20;;
72611;SDS011;60655;52.182;4.474;2023-03-01T14:30:43;13.88;;;5.28;;
72611;SDS011;60655;52.182;4.474;2023-03-01T14:32:59;12.00;;;5.15;;
72611;SDS011;60655;52.182;4.474;2023-03-01T14:35:18;12.57;;;4.65;;
72611;SDS011;60655;52.182;4.474;2023-03-01T14:37:28;13.05;;;5.10;;
72611;SDS011;60655;52.182;4.474;2023-03-01T14:39:31;11.75;;;5.35;;